Time;durP1;ratioP1;P1;durP2;ratioP2;P2;SDS_P1;SDS_P2;PMS_P1;PMS_P2;Temp;Humidity;BMP_temperature;BMP_pressure;BME280_temperature;BME280_humidity;BME280_pressure;Samples;Min_cycle;Max_cycle;Signal;HPM_P1;HPM_P2
2023/06/15 00:02:17;;;;;;;20.88;9.15;;;;;;;15.12;100.00;94276.56;5072425;28;20131;-80
2023/06/15 00:04:42;;;;;;;13.80;9.05;;;;;;;15.04;100.00;94276.47;5073507;28;20033;-80
2023/06/15 00:07:08;;;;;;;18.38;9.27;;;;;;;14.72;100.00;94273.69;5072559;28;20036;-80
2023/06/15 00:09:33;;;;;;;12.32;8.70;;;;;;;14.82;100.00;94272.72;5072847;28;20123;-80
2023/06/15 00:11:59;;;;;;;15.15;9.30;;;;;;;14.84;100.00;94268.72;5072603;28;20043;-80
2023/06/15 00:14:24;;;;;;;15.70;9.35;;;;;;;14.78;100.00;94272.53;5073542;28;20067;-80
2023/06/15 00:16:52;;;;;;;18.98;10.90;;;;;;;14.33;100.00;94259.16;5055743;28;20111;-80
2023/06/15 00:19:20;;;;;;;24.30;10.20;;;;;;;14.26;100.00;94262.97;5073947;28;20051;-80
2023/06/15 00:21:48;;;;;;;17.55;11.55;;;;;;;14.10;100.00;94262.47;5073935;28;20051;-80
2023/06/15 00:24:16;;;;;;;31.27;12.82;;;;;;;13.98;100.00;94273.47;5073098;28;20020;-80
2023/06/15 00:26:42;;;;;;;17.25;11.48;;;;;;;13.97;100.00;94271.91;5073789;28;20397;-80
2023/06/15 00:29:08;;;;;;;20.40;11.90;;;;;;;14.00;100.00;94273.19;5072627;28;20036;-80
2023/06/15 00:31:34;;;;;;;20.63;11.07;;;;;;;14.02;100.00;94268.41;5072280;28;20040;-80
2023/06/15 00:34:00;;;;;;;19.67;11.05;;;;;;;14.01;100.00;94269.50;5073327;28;20078;-80
2023/06/15 00:36:25;;;;;;;15.00;9.07;;;;;;;14.22;100.00;94262.00;5081295;28;20036;-80
2023/06/15 00:38:51;;;;;;;17.23;8.90;;;;;;;14.31;100.00;94259.47;5092649;28;20127;-80
2023/06/15 00:41:16;;;;;;;15.13;8.98;;;;;;;14.35;100.00;94257.03;5092318;28;20035;-80
2023/06/15 00:43:42;;;;;;;25.05;9.70;;;;;;;14.15;100.00;94269.50;5094337;28;20046;-80
2023/06/15 00:46:07;;;;;;;14.52;10.07;;;;;;;14.11;100.00;94274.56;5096553;28;20032;-80
2023/06/15 00:48:33;;;;;;;16.55;10.30;;;;;;;14.09;100.00;94278.56;5094882;28;20039;-80
2023/06/15 00:50:59;;;;;;;17.33;10.85;;;;;;;14.05;100.00;94273.09;5088892;28;20028;-80
2023/06/15 00:53:25;;;;;;;15.73;10.57;;;;;;;14.02;100.00;94280.78;5083704;28;20085;-80
2023/06/15 00:55:51;;;;;;;16.92;9.85;;;;;;;14.09;100.00;94281.97;5090364;28;20417;-80
2023/06/15 00:58:17;;;;;;;18.38;9.75;;;;;;;13.91;100.00;94274.94;5088665;28;20081;-80
2023/06/15 01:00:48;;;;;;;16.27;9.07;;;;;;;14.16;100.00;94276.31;5088228;28;20031;-80
2023/06/15 01:03:20;;;;;;;11.88;8.75;;;;;;;14.12;100.00;94268.22;5077968;28;20039;-80
2023/06/15 01:05:52;;;;;;;13.13;8.02;;;;;;;14.16;100.00;94267.66;5078752;28;20060;-80
2023/06/15 01:08:32;;;;;;;20.45;10.63;;;;;;;13.97;100.00;94274.56;5079897;28;20044;-80
2023/06/15 01:10:58;;;;;;;17.00;9.23;;;;;;;14.02;100.00;94273.69;5078435;28;20426;-80
2023/06/15 01:13:24;;;;;;;13.50;8.45;;;;;;;14.09;100.00;94260.91;5079260;28;20081;-80
2023/06/15 01:15:53;;;;;;;13.88;9.32;;;;;;;14.06;100.00;94255.44;5077601;28;20387;-80
2023/06/15 01:18:20;;;;;;;21.45;10.00;;;;;;;13.92;100.00;94272.03;5089411;28;20040;-80
2023/06/15 01:20:48;;;;;;;14.60;9.48;;;;;;;13.94;100.00;94279.63;5096815;28;20028;-80
2023/06/15 01:23:33;;;;;;;17.48;10.35;;;;;;;14.06;100.00;94273.88;5095101;28;20069;-80
2023/06/15 01:26:11;;;;;;;17.58;8.55;;;;;;;14.08;100.00;94269.88;5095797;28;20081;-80
2023/06/15 01:28:40;;;;;;;20.63;9.45;;;;;;;14.09;100.00;94270.66;5076919;28;20087;-80
2023/06/15 01:31:06;;;;;;;16.25;9.77;;;;;;;14.31;100.00;94272.63;5075520;28;20114;-80
2023/06/15 01:33:32;;;;;;;19.20;10.90;;;;;;;14.55;100.00;94272.44;5075006;28;20123;-80
2023/06/15 01:35:58;;;;;;;16.33;10.48;;;;;;;14.69;100.00;94269.75;5076745;28;20044;-80
2023/06/15 01:38:27;;;;;;;18.77;10.20;;;;;;;14.98;100.00;94273.94;5075377;28;20047;-80
2023/06/15 01:40:53;;;;;;;17.08;10.13;;;;;;;15.06;100.00;94271.69;5076202;28;20448;-80
2023/06/15 01:43:22;;;;;;;16.45;9.40;;;;;;;15.16;100.00;94279.38;5075115;28;20102;-80
2023/06/15 01:45:49;;;;;;;18.38;10.85;;;;;;;15.06;100.00;94266.41;5076422;28;20036;-79
2023/06/15 01:48:15;;;;;;;14.30;8.75;;;;;;;14.80;100.00;94285.41;5076991;28;20101;-80
2023/06/15 01:50:41;;;;;;;20.23;9.88;;;;;;;14.78;100.00;94279.66;5076419;28;20397;-80
2023/06/15 01:53:07;;;;;;;17.70;9.38;;;;;;;14.75;100.00;94273.09;5076007;28;20471;-80
2023/06/15 01:55:33;;;;;;;21.75;9.27;;;;;;;14.81;100.00;94276.41;5074687;28;20392;-80
2023/06/15 01:57:58;;;;;;;14.50;8.73;;;;;;;14.74;100.00;94274.19;5075063;28;20046;-80
2023/06/15 02:00:25;;;;;;;14.07;7.57;;;;;;;14.76;100.00;94279.19;5076221;28;20127;-80
2023/06/15 02:02:50;;;;;;;20.85;10.98;;;;;;;14.70;100.00;94273.19;5075848;28;20089;-80
2023/06/15 02:05:15;;;;;;;20.58;11.48;;;;;;;14.68;100.00;94270.06;5074108;28;20044;-80
2023/06/15 02:07:41;;;;;;;17.45;11.82;;;;;;;14.74;100.00;94262.88;5076152;28;20037;-80
2023/06/15 02:10:07;;;;;;;22.27;14.07;;;;;;;14.75;100.00;94259.16;5074867;28;20116;-80
2023/06/15 02:12:33;;;;;;;28.45;16.13;;;;;;;14.61;100.00;94261.78;5076136;28;20845;-80
2023/06/15 02:15:02;;;;;;;25.27;14.30;;;;;;;14.61;100.00;94265.19;5075311;28;20511;-80
2023/06/15 02:17:31;;;;;;;23.05;14.27;;;;;;;14.64;100.00;94263.84;5074671;28;20036;-80
2023/06/15 02:19:57;;;;;;;20.02;13.13;;;;;;;14.62;100.00;94263.31;5075855;28;20055;-80
2023/06/15 02:22:22;;;;;;;32.55;16.67;;;;;;;14.51;100.00;94262.75;5074548;28;20036;-80
2023/06/15 02:24:48;;;;;;;34.63;17.25;;;;;;;14.51;100.00;94268.81;5074922;28;20461;-80
2023/06/15 02:27:13;;;;;;;22.55;14.82;;;;;;;14.67;100.00;94265.88;5074418;28;20047;-80
2023/06/15 02:29:39;;;;;;;30.85;16.02;;;;;;;14.77;100.00;94264.91;5075587;28;20158;-80
2023/06/15 02:32:05;;;;;;;28.45;17.85;;;;;;;14.86;100.00;94270.25;5074401;28;20044;-80
2023/06/15 02:34:30;;;;;;;30.58;17.25;;;;;;;14.88;100.00;94270.75;5075196;28;20123;-80
2023/06/15 02:36:56;;;;;;;29.02;17.13;;;;;;;14.94;100.00;94272.22;5074220;28;20048;-80
2023/06/15 02:39:21;;;;;;;33.65;14.40;;;;;;;15.16;100.00;94273.31;5074213;28;20039;-80
2023/06/15 02:41:47;;;;;;;23.08;14.30;;;;;;;15.19;100.00;94272.72;5073811;28;20043;-80
2023/06/15 02:44:14;;;;;;;25.05;13.23;;;;;;;14.93;100.00;94268.78;5075020;28;20051;-80
2023/06/15 02:46:40;;;;;;;26.15;13.48;;;;;;;14.80;100.00;94277.50;5075524;28;20047;-80
2023/06/15 02:49:06;;;;;;;25.33;13.73;;;;;;;14.68;100.00;94275.34;5073987;28;20044;-80
2023/06/15 02:51:32;;;;;;;32.40;14.02;;;;;;;14.56;100.00;94278.47;5073570;28;20402;-80
2023/06/15 02:53:58;;;;;;;26.00;14.80;;;;;;;14.47;100.00;94282.88;5073797;28;20437;-80
2023/06/15 02:56:23;;;;;;;22.05;14.18;;;;;;;14.62;100.00;94273.88;5083466;28;20070;-80
2023/06/15 02:58:53;;;;;;;26.17;16.08;;;;;;;14.77;100.00;94278.09;5082363;28;20040;-80
2023/06/15 03:01:23;;;;;;;24.10;13.88;;;;;;;14.69;100.00;94263.72;5084008;28;20115;-80
2023/06/15 03:03:49;;;;;;;25.33;15.00;;;;;;;14.66;100.00;94274.88;5083549;28;20059;-80
2023/06/15 03:06:15;;;;;;;35.90;18.90;;;;;;;14.59;100.00;94280.53;5085261;28;20059;-80
2023/06/15 03:08:42;;;;;;;35.13;19.77;;;;;;;14.58;100.00;94276.34;5082312;28;20032;-80
2023/06/15 03:11:08;;;;;;;43.00;23.88;;;;;;;14.38;100.00;94290.69;5074822;28;20127;-80
2023/06/15 03:13:33;;;;;;;46.97;24.15;;;;;;;14.19;100.00;94286.28;5093552;28;20420;-80
2023/06/15 03:16:02;;;;;;;55.38;26.50;;;;;;;13.97;100.00;94290.34;5094614;28;20036;-80
2023/06/15 03:18:29;;;;;;;51.40;27.17;;;;;;;13.97;100.00;94281.66;5095094;28;20135;-80
2023/06/15 03:20:56;;;;;;;49.08;27.10;;;;;;;14.13;100.00;94298.00;5094058;28;20457;-80
2023/06/15 03:23:22;;;;;;;56.53;29.10;;;;;;;14.23;100.00;94291.75;5093640;28;20051;-80
2023/06/15 03:25:49;;;;;;;60.20;29.65;;;;;;;14.10;100.00;94288.81;5093818;28;20036;-80
2023/06/15 03:28:16;;;;;;;62.53;31.42;;;;;;;14.23;100.00;94287.28;5095146;28;20554;-80
2023/06/15 03:30:42;;;;;;;52.03;28.55;;;;;;;14.25;100.00;94286.97;5095219;28;20092;-80
2023/06/15 03:33:09;;;;;;;53.95;29.38;;;;;;;14.26;100.00;94291.94;5094771;28;20445;-80
2023/06/15 03:35:35;;;;;;;63.97;34.80;;;;;;;14.32;100.00;94290.00;5076789;28;20040;-80
2023/06/15 03:38:00;;;;;;;66.00;37.08;;;;;;;14.27;100.00;94282.97;5094388;28;20038;-80
2023/06/15 03:40:26;;;;;;;66.10;35.00;;;;;;;14.34;100.00;94287.06;5086921;28;20089;-80
2023/06/15 03:42:51;;;;;;;67.97;35.13;;;;;;;14.39;100.00;94282.47;5113927;28;20053;-79
2023/06/15 03:45:18;;;;;;;55.80;31.65;;;;;;;14.35;100.00;94273.59;5114392;28;20039;-80
2023/06/15 03:47:46;;;;;;;52.13;30.60;;;;;;;14.40;100.00;94273.50;5112932;28;20082;-80
2023/06/15 03:50:11;;;;;;;52.08;30.95;;;;;;;14.36;100.00;94274.41;5114573;28;20100;-80
2023/06/15 03:52:37;;;;;;;52.08;30.45;;;;;;;14.24;100.00;94283.56;5114532;28;20040;-80
2023/06/15 03:55:03;;;;;;;56.22;30.88;;;;;;;14.31;100.00;94271.84;5113853;28;20043;-80
2023/06/15 03:57:28;;;;;;;49.70;28.73;;;;;;;14.22;100.00;94277.81;5114590;28;20032;-80
2023/06/15 03:59:54;;;;;;;56.67;33.88;;;;;;;14.34;100.00;94281.78;5113030;28;20054;-80
2023/06/15 04:02:19;;;;;;;57.92;33.33;;;;;;;14.13;100.00;94290.09;5113061;28;20122;-80
2023/06/15 04:04:45;;;;;;;60.13;32.97;;;;;;;13.91;100.00;94294.13;5112384;28;20039;-80
2023/06/15 04:07:12;;;;;;;67.95;33.28;;;;;;;13.85;100.00;94298.72;5114231;28;20351;-80
2023/06/15 04:09:37;;;;;;;58.97;31.85;;;;;;;13.98;100.00;94294.56;5113004;28;20035;-80
2023/06/15 04:12:03;;;;;;;52.17;29.25;;;;;;;14.19;100.00;94304.72;5114231;28;20096;-80
2023/06/15 04:14:30;;;;;;;59.35;31.73;;;;;;;14.05;100.00;94306.56;5112295;28;20071;-80
2023/06/15 04:16:55;;;;;;;52.15;28.85;;;;;;;14.00;100.00;94305.56;5113218;28;20035;-80
2023/06/15 04:19:22;;;;;;;56.45;30.90;;;;;;;14.28;100.00;94318.78;5114233;28;20098;-80
2023/06/15 04:21:48;;;;;;;52.97;30.00;;;;;;;14.33;100.00;94311.84;5113845;28;20027;-80
2023/06/15 04:24:14;;;;;;;50.13;26.83;;;;;;;14.21;100.00;94315.78;5113707;28;20348;-80
2023/06/15 04:26:41;;;;;;;54.83;29.15;;;;;;;13.84;100.00;94322.72;5115686;28;20035;-80
2023/06/15 04:29:07;;;;;;;56.10;29.35;;;;;;;13.74;100.00;94320.22;5116580;28;20114;-80
2023/06/15 04:31:33;;;;;;;65.50;33.95;;;;;;;13.82;100.00;94332.75;5118384;28;20130;-80
2023/06/15 04:33:59;;;;;;;63.75;33.63;;;;;;;13.92;100.00;94326.53;5105573;28;20102;-80
2023/06/15 04:36:24;;;;;;;55.90;29.65;;;;;;;14.25;100.00;94326.50;5088818;28;20039;-80
2023/06/15 04:38:50;;;;;;;51.55;29.25;;;;;;;14.36;100.00;94327.88;5085236;28;20410;-80
2023/06/15 04:41:18;;;;;;;55.72;30.23;;;;;;;14.46;100.00;94321.63;5097887;28;20046;-80
2023/06/15 04:43:44;;;;;;;57.53;29.02;;;;;;;14.52;100.00;94317.03;5097555;28;20330;-80
2023/06/15 04:46:11;;;;;;;53.05;28.73;;;;;;;14.60;100.00;94316.38;5098143;28;20051;-80
2023/06/15 04:48:36;;;;;;;49.22;27.45;;;;;;;14.64;100.00;94314.69;5097676;28;20024;-80
2023/06/15 04:51:02;;;;;;;46.42;26.15;;;;;;;14.81;100.00;94305.44;5095542;28;20061;-80
2023/06/15 04:53:27;;;;;;;44.25;25.50;;;;;;;14.79;100.00;94308.38;5097149;28;20127;-79
2023/06/15 04:55:53;;;;;;;41.70;24.23;;;;;;;14.57;100.00;94312.44;5095274;28;20621;-79
2023/06/15 04:58:18;;;;;;;47.45;24.25;;;;;;;14.49;100.00;94321.06;5083248;28;20062;-80
2023/06/15 05:00:44;;;;;;;34.83;22.58;;;;;;;14.83;100.00;94316.47;5093866;28;20429;-80
2023/06/15 05:03:11;;;;;;;36.38;21.98;;;;;;;14.83;100.00;94317.25;5096243;28;20119;-79
2023/06/15 05:05:36;;;;;;;39.92;23.55;;;;;;;15.07;100.00;94310.97;5097752;28;20057;-80
2023/06/15 05:08:02;;;;;;;44.58;25.17;;;;;;;15.30;100.00;94323.44;5096056;28;20066;-80
2023/06/15 05:10:28;;;;;;;44.83;25.65;;;;;;;15.44;100.00;94323.38;5097471;28;20043;-79
2023/06/15 05:12:54;;;;;;;45.92;24.00;;;;;;;15.50;100.00;94322.19;5095281;28;20032;-79
2023/06/15 05:15:20;;;;;;;53.30;28.58;;;;;;;15.18;100.00;94330.00;5097116;28;20043;-79
2023/06/15 05:17:45;;;;;;;55.28;28.27;;;;;;;15.08;100.00;94320.44;5096085;28;20040;-79
2023/06/15 05:20:11;;;;;;;49.10;28.80;;;;;;;15.00;100.00;94321.13;5095816;28;20344;-80
2023/06/15 05:22:36;;;;;;;42.75;25.42;;;;;;;15.41;100.00;94324.75;5095965;28;20353;-80
2023/06/15 05:25:05;;;;;;;45.65;26.25;;;;;;;15.35;100.00;94329.38;5096638;28;20543;-80
2023/06/15 05:27:31;;;;;;;49.90;28.55;;;;;;;15.38;100.00;94331.41;5097031;28;20081;-80
2023/06/15 05:29:56;;;;;;;48.28;25.85;;;;;;;15.60;100.00;94329.84;5095980;28;20032;-80
2023/06/15 05:32:21;;;;;;;44.53;26.35;;;;;;;15.67;100.00;94335.53;5095700;28;20429;-80
2023/06/15 05:34:47;;;;;;;40.53;25.10;;;;;;;16.51;100.00;94332.44;5096730;28;20081;-80
2023/06/15 05:37:12;;;;;;;45.78;25.65;;;;;;;16.38;100.00;94330.66;5097110;28;20040;-80
2023/06/15 05:39:38;;;;;;;44.60;26.00;;;;;;;16.21;100.00;94342.72;5094694;28;20028;-80
2023/06/15 05:42:04;;;;;;;40.83;25.33;;;;;;;16.63;100.00;94346.91;5094351;28;20035;-83
2023/06/15 05:44:30;;;;;;;33.80;20.58;;;;;;;16.49;100.00;94347.03;5062893;28;20024;-80
2023/06/15 05:46:55;;;;;;;42.05;25.63;;;;;;;16.08;100.00;94344.34;5076650;28;20386;-80
2023/06/15 05:49:21;;;;;;;36.13;22.75;;;;;;;16.53;100.00;94346.13;5076655;28;20036;-80
2023/06/15 05:51:46;;;;;;;38.42;23.67;;;;;;;16.96;100.00;94339.38;5076716;28;20032;-80
2023/06/15 05:54:11;;;;;;;48.38;25.20;;;;;;;16.93;100.00;94344.53;5075997;28;20450;-80
2023/06/15 05:56:37;;;;;;;40.17;23.85;;;;;;;17.06;100.00;94342.88;5076301;28;20025;-80
2023/06/15 05:59:02;;;;;;;32.47;19.55;;;;;;;17.22;100.00;94337.94;5076462;28;20091;-81
2023/06/15 06:01:28;;;;;;;32.83;20.17;;;;;;;16.68;100.00;94346.78;5076608;28;20032;-80
2023/06/15 06:03:53;;;;;;;38.45;20.42;;;;;;;16.98;100.00;94346.25;5085161;28;20495;-80
2023/06/15 06:06:18;;;;;;;34.65;20.65;;;;;;;17.32;100.00;94353.50;5088370;28;20433;-80
2023/06/15 06:08:44;;;;;;;31.63;18.42;;;;;;;18.00;100.00;94356.75;5095940;28;20119;-80
2023/06/15 06:11:09;;;;;;;30.33;19.90;;;;;;;17.90;100.00;94361.28;5096050;28;20441;-80
2023/06/15 06:13:35;;;;;;;31.20;19.17;;;;;;;18.18;100.00;94357.53;5095631;28;20038;-80
2023/06/15 06:16:01;;;;;;;29.55;16.10;;;;;;;17.54;100.00;94362.41;5094206;28;20113;-80
2023/06/15 06:18:26;;;;;;;23.95;15.68;;;;;;;17.07;100.00;94363.75;5094535;28;20086;-80
2023/06/15 06:20:52;;;;;;;26.88;17.33;;;;;;;17.63;100.00;94360.50;5096089;28;20048;-81
2023/06/15 06:23:17;;;;;;;27.90;18.80;;;;;;;17.95;100.00;94360.34;5093927;28;20074;-80
2023/06/15 06:25:43;;;;;;;25.92;17.30;;;;;;;18.02;100.00;94359.88;5095442;28;20020;-80
2023/06/15 06:28:08;;;;;;;31.35;19.55;;;;;;;17.98;100.00;94361.59;5094027;28;20036;-80
2023/06/15 06:30:34;;;;;;;24.48;15.70;;;;;;;18.56;100.00;94366.63;5095746;28;20402;-80
2023/06/15 06:33:00;;;;;;;24.48;15.40;;;;;;;18.33;100.00;94370.28;5095264;28;20111;-80
2023/06/15 06:35:25;;;;;;;30.60;16.75;;;;;;;17.54;100.00;94367.69;5094169;28;20032;-80
2023/06/15 06:37:51;;;;;;;25.55;17.05;;;;;;;18.09;100.00;94368.94;5095374;28;20040;-80
2023/06/15 06:40:16;;;;;;;26.85;18.60;;;;;;;17.41;100.00;94364.09;5095680;28;20036;-80
2023/06/15 06:42:42;;;;;;;29.05;17.83;;;;;;;18.39;100.00;94370.91;5094116;28;20436;-80
2023/06/15 06:45:07;;;;;;;36.22;20.23;;;;;;;18.62;100.00;94360.84;5095014;28;20027;-80
2023/06/15 06:47:33;;;;;;;33.05;20.45;;;;;;;19.23;100.00;94364.31;5095883;28;20471;-80
2023/06/15 06:49:59;;;;;;;35.33;21.23;;;;;;;19.11;100.00;94358.91;5095545;28;20042;-81
2023/06/15 06:52:25;;;;;;;43.05;22.70;;;;;;;18.64;100.00;94360.50;5095532;28;20044;-80
2023/06/15 06:54:51;;;;;;;38.40;22.08;;;;;;;18.15;100.00;94361.59;5094955;28;20065;-81
2023/06/15 06:57:16;;;;;;;33.60;20.85;;;;;;;18.25;100.00;94357.81;5093884;28;20103;-80
2023/06/15 06:59:42;;;;;;;31.80;19.75;;;;;;;18.35;100.00;94354.84;5095407;28;20444;-80
2023/06/15 07:02:07;;;;;;;31.00;19.92;;;;;;;18.68;100.00;94352.69;5093739;28;20472;-81
2023/06/15 07:04:33;;;;;;;33.63;20.50;;;;;;;18.35;100.00;94352.19;5094583;28;20419;-81
2023/06/15 07:06:58;;;;;;;32.95;19.17;;;;;;;18.66;100.00;94360.97;5094932;28;20055;-81
2023/06/15 07:09:24;;;;;;;29.27;18.33;;;;;;;18.76;100.00;94349.97;5095309;28;20334;-81
2023/06/15 07:11:49;;;;;;;30.17;18.83;;;;;;;18.75;100.00;94348.44;5094873;28;20031;-80
2023/06/15 07:14:14;;;;;;;29.23;18.30;;;;;;;18.97;100.00;94356.44;5094641;28;20075;-80
2023/06/15 07:16:40;;;;;;;25.65;16.98;;;;;;;19.58;100.00;94349.97;5093643;28;20046;-80
2023/06/15 07:19:05;;;;;;;25.42;15.02;;;;;;;19.83;100.00;94355.41;5094950;28;20039;-80
2023/06/15 07:21:30;;;;;;;24.15;15.90;;;;;;;19.55;100.00;94354.09;5095131;28;20058;-80
2023/06/15 07:23:56;;;;;;;25.73;16.45;;;;;;;19.28;100.00;94363.31;5092869;28;20028;-80
2023/06/15 07:26:22;;;;;;;21.70;12.60;;;;;;;19.91;100.00;94363.31;5094828;28;20392;-80
2023/06/15 07:28:47;;;;;;;22.02;13.18;;;;;;;19.93;100.00;94360.34;5093620;28;20040;-81
2023/06/15 07:31:13;;;;;;;17.73;12.43;;;;;;;20.75;100.00;94358.84;5094758;28;20475;-80
2023/06/15 07:33:38;;;;;;;22.77;12.15;;;;;;;19.48;100.00;94369.75;5094195;28;20047;-80
2023/06/15 07:36:04;;;;;;;26.98;15.18;;;;;;;18.96;100.00;94353.03;5094567;28;20031;-81
2023/06/15 07:38:30;;;;;;;22.25;12.95;;;;;;;20.17;100.00;94358.91;5094778;28;20066;-78
2023/06/15 07:40:56;;;;;;;20.80;14.10;;;;;;;20.16;100.00;94347.47;5095025;28;20040;-78
2023/06/15 07:43:22;;;;;;;19.55;12.80;;;;;;;20.51;100.00;94345.53;5093341;28;20100;-78
2023/06/15 07:45:47;;;;;;;24.17;13.65;;;;;;;19.44;100.00;94345.72;5094855;28;20036;-78
2023/06/15 07:48:13;;;;;;;15.45;11.25;;;;;;;20.95;100.00;94347.69;5093539;28;20036;-81
2023/06/15 07:50:38;;;;;;;16.45;10.20;;;;;;;21.48;100.00;94353.03;5093214;28;20040;-81
2023/06/15 07:53:04;;;;;;;16.77;10.95;;;;;;;20.96;100.00;94344.69;5092423;28;20036;-81
2023/06/15 07:55:29;;;;;;;16.38;10.75;;;;;;;21.65;100.00;94346.66;5094505;28;20091;-81
2023/06/15 07:57:55;;;;;;;17.08;10.32;;;;;;;21.09;100.00;94347.31;5093243;28;20031;-81
2023/06/15 08:00:21;;;;;;;14.10;10.60;;;;;;;20.66;100.00;94347.56;5093177;28;20411;-81
2023/06/15 08:02:46;;;;;;;14.65;10.00;;;;;;;20.84;100.00;94350.03;5092631;28;20043;-80
2023/06/15 08:05:11;;;;;;;12.90;9.63;;;;;;;20.71;100.00;94350.00;5093865;28;20028;-81
2023/06/15 08:07:37;;;;;;;17.90;10.60;;;;;;;20.14;100.00;94343.56;5092795;28;20039;-81
2023/06/15 08:10:03;;;;;;;15.02;10.18;;;;;;;20.20;100.00;94343.03;5094359;28;20689;-81
2023/06/15 08:12:28;;;;;;;13.02;9.85;;;;;;;20.65;100.00;94343.31;5092534;28;20036;-80
2023/06/15 08:14:54;;;;;;;15.63;8.98;;;;;;;21.47;100.00;94338.16;5093732;28;20050;-81
2023/06/15 08:17:20;;;;;;;13.07;8.48;;;;;;;21.82;100.00;94339.53;5093184;28;20089;-81
2023/06/15 08:19:45;;;;;;;15.10;8.13;;;;;;;21.01;100.00;94346.34;5094268;28;20048;-81
2023/06/15 08:22:11;;;;;;;12.55;7.22;;;;;;;21.10;100.00;94341.69;5094048;28;20063;-81
2023/06/15 08:24:36;;;;;;;17.50;7.80;;;;;;;20.54;100.00;94347.53;5092286;28;20024;-81
2023/06/15 08:27:02;;;;;;;12.20;6.38;;;;;;;20.78;100.00;94346.78;5093681;28;20082;-81
2023/06/15 08:29:28;;;;;;;15.90;7.55;;;;;;;20.69;100.00;94349.56;5094260;28;20095;-80
2023/06/15 08:31:53;;;;;;;8.75;6.70;;;;;;;20.55;100.00;94347.19;5093848;28;20028;-80
2023/06/15 08:34:19;;;;;;;9.77;6.10;;;;;;;20.42;100.00;94348.28;5093467;28;20043;-81
2023/06/15 08:36:45;;;;;;;12.63;6.05;;;;;;;21.24;100.00;94352.00;5094160;28;20048;-80
2023/06/15 08:39:10;;;;;;;11.50;6.03;;;;;;;20.01;100.00;94346.22;5093906;28;20433;-81
2023/06/15 08:41:37;;;;;;;9.60;5.45;;;;;;;20.30;100.00;94349.84;5083629;28;20040;-81
2023/06/15 08:44:04;;;;;;;12.23;6.60;;;;;;;21.14;100.00;94347.13;5073397;28;20063;-81
2023/06/15 08:46:29;;;;;;;11.30;5.80;;;;;;;21.33;100.00;94355.28;5071952;28;20441;-80
2023/06/15 08:48:55;;;;;;;9.27;5.45;;;;;;;20.89;100.00;94342.59;5073250;28;20048;-81
2023/06/15 08:51:24;;;;;;;6.70;5.07;;;;;;;21.17;100.00;94347.22;5072514;28;20040;-80
2023/06/15 08:53:50;;;;;;;9.40;5.50;;;;;;;21.73;100.00;94353.00;5072114;28;20110;-81
2023/06/15 08:56:15;;;;;;;9.10;5.50;;;;;;;21.90;100.00;94349.28;5072058;28;20126;-81
2023/06/15 08:58:49;;;;;;;9.20;5.40;;;;;;;21.70;100.00;94348.34;5073297;28;20170;-80
2023/06/15 09:01:18;;;;;;;6.55;4.68;;;;;;;21.94;100.00;94352.03;5072488;28;20346;-81
2023/06/15 09:03:44;;;;;;;5.75;4.45;;;;;;;21.79;100.00;94350.88;5071419;28;20357;-81
2023/06/15 09:06:10;;;;;;;7.57;5.15;;;;;;;22.13;100.00;94354.84;5072085;28;20028;-81
2023/06/15 09:08:35;;;;;;;8.23;4.95;;;;;;;21.46;100.00;94357.94;5072235;28;20040;-81
2023/06/15 09:11:09;;;;;;;14.40;5.00;;;;;;;21.57;100.00;94345.69;5073544;28;20032;-81
2023/06/15 09:13:34;;;;;;;;;;;;;;;21.43;100.00;94350.63;5074387;28;20039;-81
2023/06/15 09:16:00;;;;;;;10.30;5.18;;;;;;;21.52;100.00;94356.59;5075539;28;19916;-81
2023/06/15 09:18:26;;;;;;;9.18;5.75;;;;;;;21.30;100.00;94344.53;5075503;28;20483;-81
2023/06/15 09:20:52;;;;;;;7.63;5.00;;;;;;;21.17;100.00;94343.78;5075703;28;20115;-81
2023/06/15 09:23:18;;;;;;;8.55;5.53;;;;;;;21.64;100.00;94344.31;5076445;28;20044;-81
2023/06/15 09:25:54;;;;;;;10.35;5.20;;;;;;;21.73;100.00;94347.66;5075571;28;20126;-81
2023/06/15 09:28:27;;;;;;;6.70;4.38;;;;;;;22.51;100.00;94351.97;5075340;28;20032;-81
2023/06/15 09:30:55;;;;;;;6.80;4.28;;;;;;;21.91;100.00;94350.03;5075312;28;20388;-80
2023/06/15 09:33:21;;;;;;;6.75;3.75;;;;;;;21.88;100.00;94356.84;5075500;28;20036;-80
2023/06/15 09:36:01;;;;;;;8.73;4.32;;;;;;;21.90;100.00;94349.28;5076732;28;20047;-81
2023/06/15 09:38:44;;;;;;;7.03;4.32;;;;;;;22.18;100.00;94357.25;5075281;28;20036;-81
2023/06/15 09:41:10;;;;;;;6.75;3.92;;;;;;;22.18;100.00;94361.81;5076870;28;20040;-81
2023/06/15 09:43:40;;;;;;;6.75;3.97;;;;;;;22.05;100.00;94361.09;5074845;28;20408;-81
2023/06/15 09:46:12;;;;;;;9.63;4.53;;;;;;;21.96;100.00;94360.47;5075015;28;20040;-81
2023/06/15 09:48:43;;;;;;;9.18;4.70;;;;;;;22.34;100.00;94361.84;5076104;28;20426;-81
2023/06/15 09:51:08;;;;;;;11.63;4.35;;;;;;;21.53;100.00;94368.03;5075313;28;20036;-81
2023/06/15 09:53:34;;;;;;;5.35;4.50;;;;;;;21.39;100.00;94368.41;5074404;28;20040;-80
2023/06/15 09:56:01;;;;;;;9.43;5.53;;;;;;;22.00;100.00;94374.69;5076267;28;20085;-81
2023/06/15 09:58:29;;;;;;;9.88;4.43;;;;;;;22.01;100.00;94366.31;5075216;28;20463;-81
2023/06/15 10:00:57;;;;;;;9.13;5.25;;;;;;;22.13;100.00;94364.72;5075912;28;20040;-81
2023/06/15 10:03:23;;;;;;;8.95;5.10;;;;;;;21.95;100.00;94364.25;5074511;28;20486;-81
2023/06/15 10:05:54;;;;;;;8.68;6.32;;;;;;;21.95;100.00;94364.25;5074542;28;20033;-81
2023/06/15 10:08:24;;;;;;;10.38;6.20;;;;;;;21.59;100.00;94359.47;5074979;28;20062;-81
2023/06/15 10:10:51;;;;;;;11.90;6.30;;;;;;;21.69;100.00;94365.47;5076355;28;20119;-81
2023/06/15 10:13:41;;;;;;;7.20;6.22;;;;;;;21.81;100.00;94376.09;5074915;28;20037;-81
2023/06/15 10:16:07;;;;;;;14.38;7.07;;;;;;;21.23;100.00;94373.63;5085541;28;20048;-81
2023/06/15 10:18:33;;;;;;;13.23;6.72;;;;;;;20.87;100.00;94370.66;5085525;28;20109;-81
2023/06/15 10:21:02;;;;;;;5.10;4.25;;;;;;;20.64;100.00;94373.69;5095114;28;20576;-81
2023/06/15 10:23:29;;;;;;;9.35;4.85;;;;;;;20.51;100.00;94362.28;5094338;28;20479;-81
2023/06/15 10:25:55;;;;;;;6.68;5.30;;;;;;;20.87;100.00;94375.97;5094524;28;20118;-81
2023/06/15 10:28:24;;;;;;;7.43;5.47;;;;;;;20.90;100.00;94367.31;5096713;28;20050;-81
2023/06/15 10:30:52;;;;;;;8.95;5.70;;;;;;;21.19;100.00;94366.31;5096361;28;20070;-81
2023/06/15 10:33:26;;;;;;;7.38;5.20;;;;;;;21.53;100.00;94368.81;5094102;28;20040;-81
2023/06/15 10:36:03;;;;;;;8.77;6.18;;;;;;;21.07;100.00;94362.88;5094580;28;20035;-81
2023/06/15 10:38:47;;;;;;;10.93;5.50;;;;;;;21.97;100.00;94364.69;5094828;28;20032;-81
2023/06/15 10:41:13;;;;;;;12.95;5.75;;;;;;;22.78;100.00;94365.59;5094577;28;20034;-81
2023/06/15 10:43:56;;;;;;;13.00;4.65;;;;;;;22.98;100.00;94367.22;5095584;28;20496;-82
2023/06/15 10:46:34;;;;;;;7.03;4.40;;;;;;;23.40;100.00;94370.44;5094503;28;20347;-82
2023/06/15 10:49:04;;;;;;;5.38;4.25;;;;;;;22.22;100.00;94364.56;5089217;28;20039;-81
2023/06/15 10:51:33;;;;;;;8.13;4.38;;;;;;;21.51;100.00;94362.25;5093719;28;20735;-81
2023/06/15 10:54:01;;;;;;;11.60;4.32;;;;;;;21.15;100.00;94368.06;5092911;28;20032;-80
2023/06/15 10:56:27;;;;;;;5.65;3.45;;;;;;;21.50;100.00;94369.47;5092560;28;20349;-81
2023/06/15 10:58:59;;;;;;;10.55;3.72;;;;;;;21.92;100.00;94367.59;5094917;28;20454;-81
2023/06/15 11:01:30;;;;;;;4.15;3.30;;;;;;;22.08;100.00;94370.31;5093799;28;20043;-81
2023/06/15 11:03:56;;;;;;;4.90;3.63;;;;;;;21.84;100.00;94374.63;5092995;28;20082;-81
2023/06/15 11:06:36;;;;;;;6.75;3.63;;;;;;;21.51;100.00;94368.34;5093713;28;20032;-81
2023/06/15 11:09:07;;;;;;;4.63;3.45;;;;;;;22.20;100.00;94374.81;5093530;28;20032;-81
2023/06/15 11:11:37;;;;;;;10.90;3.13;;;;;;;22.23;100.00;94366.91;5093604;28;20036;-81
2023/06/15 11:14:04;;;;;;;8.93;3.55;;;;;;;22.50;100.00;94377.13;5092934;28;20044;-81